createdAt,value
2018-08-04T00:01:25.424Z,2.10
2018-08-04T00:03:53.554Z,1.80
2018-08-04T00:06:21.688Z,1.72
2018-08-04T00:08:49.826Z,1.30
2018-08-04T00:11:17.965Z,1.60
2018-08-04T00:13:46.081Z,1.52
2018-08-04T00:16:14.211Z,1.52
2018-08-04T00:18:42.333Z,1.72
2018-08-04T00:21:10.475Z,1.50
2018-08-04T00:23:38.617Z,1.70
2018-08-04T00:26:06.773Z,1.50
2018-08-04T00:28:34.890Z,1.50
2018-08-04T00:31:03.043Z,1.45
2018-08-04T00:33:31.166Z,1.30
2018-08-04T00:36:00.339Z,1.07
2018-08-04T00:38:28.454Z,1.20
2018-08-04T00:40:56.343Z,1.20
2018-08-04T00:43:24.470Z,1.25
2018-08-04T00:45:52.646Z,1.15
2018-08-04T00:48:20.782Z,1.30
2018-08-04T00:50:48.914Z,1.20
2018-08-04T00:53:17.042Z,1.30
2018-08-04T00:55:45.165Z,1.50
2018-08-04T00:58:13.298Z,1.27
2018-08-04T01:00:41.429Z,1.30
2018-08-04T01:03:09.545Z,1.12
2018-08-04T01:05:37.685Z,1.20
2018-08-04T01:08:05.830Z,1.30
2018-08-04T01:10:33.958Z,1.35
2018-08-04T01:13:02.146Z,1.15
2018-08-04T01:15:30.286Z,1.10
2018-08-04T01:17:58.425Z,1.00
2018-08-04T01:20:26.557Z,0.90
2018-08-04T01:22:54.711Z,1.05
2018-08-04T01:25:22.829Z,1.00
2018-08-04T01:27:50.962Z,1.05
2018-08-04T01:30:19.124Z,1.25
2018-08-04T01:32:47.242Z,1.50
2018-08-04T01:35:15.386Z,1.30
2018-08-04T01:37:43.514Z,1.20
2018-08-04T01:40:11.631Z,0.90
2018-08-04T01:42:39.798Z,1.27
2018-08-04T01:45:07.947Z,1.20
2018-08-04T01:47:36.090Z,1.37
2018-08-04T01:50:04.301Z,1.12
2018-08-04T01:52:32.426Z,1.05
2018-08-04T01:55:00.566Z,1.40
2018-08-04T01:57:28.704Z,1.45
2018-08-04T01:59:56.833Z,1.10
2018-08-04T02:02:24.990Z,1.30
2018-08-04T02:04:53.134Z,1.40
2018-08-04T02:07:21.277Z,1.40
2018-08-04T02:09:49.556Z,1.00
2018-08-04T02:12:17.702Z,1.20
2018-08-04T02:14:45.859Z,1.20
2018-08-04T02:17:14.029Z,1.20
2018-08-04T02:19:42.166Z,1.10
2018-08-04T02:22:10.330Z,1.00
2018-08-04T02:24:38.468Z,1.22
2018-08-04T02:27:06.670Z,1.10
2018-08-04T02:29:34.806Z,1.30
2018-08-04T02:32:02.955Z,1.27
2018-08-04T02:34:31.095Z,1.25
2018-08-04T02:36:59.235Z,1.32
2018-08-04T02:39:27.355Z,1.32
2018-08-04T02:41:55.497Z,1.20
2018-08-04T02:44:23.634Z,1.27
2018-08-04T02:46:51.778Z,1.50
2018-08-04T02:49:19.897Z,1.40
2018-08-04T02:51:48.034Z,1.42
2018-08-04T02:54:16.143Z,1.30
2018-08-04T02:56:44.300Z,1.17
2018-08-04T02:59:12.418Z,1.00
2018-08-04T03:01:40.560Z,1.40
2018-08-04T03:04:08.679Z,1.50
2018-08-04T03:06:36.813Z,1.32
2018-08-04T03:09:08.106Z,1.20
2018-08-04T03:11:36.228Z,1.20
2018-08-04T03:14:04.366Z,1.02
2018-08-04T03:16:32.489Z,1.37
2018-08-04T03:19:01.459Z,1.25
2018-08-04T03:21:30.528Z,1.40
2018-08-04T03:23:58.732Z,1.10
2018-08-04T03:26:26.957Z,1.40
2018-08-04T03:28:55.158Z,1.12
2018-08-04T03:31:23.274Z,1.60
2018-08-04T03:33:51.442Z,1.30
2018-08-04T03:36:19.573Z,1.10
2018-08-04T03:38:47.705Z,1.30
2018-08-04T03:41:15.822Z,1.45
2018-08-04T03:43:43.974Z,1.60
2018-08-04T03:46:12.116Z,1.45
2018-08-04T03:48:40.296Z,1.45
2018-08-04T03:51:08.425Z,1.20
2018-08-04T03:53:36.581Z,1.15
2018-08-04T03:56:04.711Z,1.30
2018-08-04T03:58:32.841Z,1.60
2018-08-04T04:01:00.971Z,1.20
2018-08-04T04:03:29.163Z,1.47
2018-08-04T04:05:57.285Z,1.42
2018-08-04T04:08:25.433Z,1.20
2018-08-04T04:10:53.575Z,1.47
2018-08-04T04:13:21.753Z,1.02
2018-08-04T04:15:49.882Z,1.60
2018-08-04T04:18:18.031Z,1.82
2018-08-04T04:20:46.166Z,1.32
2018-08-04T04:23:14.350Z,1.75
2018-08-04T04:25:42.479Z,1.50
2018-08-04T04:28:10.630Z,1.50
2018-08-04T04:30:38.774Z,1.32
2018-08-04T04:33:06.922Z,1.60
2018-08-04T04:35:35.050Z,1.60
2018-08-04T04:38:03.198Z,1.65
2018-08-04T04:40:31.346Z,1.77
2018-08-04T04:42:59.499Z,2.30
2018-08-04T04:45:27.621Z,2.47
2018-08-04T04:47:55.776Z,2.22
2018-08-04T04:50:23.904Z,2.17
2018-08-04T04:52:52.043Z,2.83
2018-08-04T04:55:20.213Z,1.75
2018-08-04T04:57:48.359Z,2.17
2018-08-04T05:00:16.491Z,2.10
2018-08-04T05:02:44.618Z,1.90
2018-08-04T05:05:12.741Z,2.12
2018-08-04T05:07:40.873Z,2.50
2018-08-04T05:10:09.034Z,1.80
2018-08-04T05:12:37.191Z,1.70
2018-08-04T05:15:06.229Z,2.22
2018-08-04T05:17:34.377Z,1.95
2018-08-04T05:20:02.494Z,2.52
2018-08-04T05:22:30.680Z,2.10
2018-08-04T05:24:58.806Z,2.65
2018-08-04T05:27:26.959Z,2.17
2018-08-04T05:29:55.087Z,2.30
2018-08-04T05:32:23.212Z,2.05
2018-08-04T05:34:51.358Z,3.05
2018-08-04T05:37:19.518Z,2.02
2018-08-04T05:39:47.664Z,3.35
2018-08-04T05:42:15.819Z,2.60
2018-08-04T05:44:43.969Z,2.50
2018-08-04T05:47:12.094Z,3.10
2018-08-04T05:49:40.228Z,2.80
2018-08-04T05:52:08.375Z,1.87
2018-08-04T05:54:36.545Z,2.67
2018-08-04T05:57:04.706Z,2.62
2018-08-04T05:59:32.843Z,3.47
2018-08-04T06:02:00.977Z,2.95
2018-08-04T06:04:29.140Z,2.50
2018-08-04T06:06:57.338Z,2.75
2018-08-04T06:09:25.507Z,2.45
2018-08-04T06:11:53.612Z,3.27
2018-08-04T06:14:21.756Z,2.92
2018-08-04T06:16:49.888Z,3.65
2018-08-04T06:19:18.068Z,3.40
2018-08-04T06:21:46.217Z,2.80
2018-08-04T06:24:14.349Z,3.27
2018-08-04T06:26:42.482Z,4.17
2018-08-04T06:29:10.652Z,2.95
2018-08-04T06:31:38.770Z,3.70
2018-08-04T06:34:06.986Z,3.65
2018-08-04T06:36:35.129Z,3.80
2018-08-04T06:39:03.393Z,3.35
2018-08-04T06:41:31.560Z,3.10
2018-08-04T06:43:59.689Z,3.35
2018-08-04T06:46:27.804Z,3.72
2018-08-04T06:48:55.932Z,3.75
2018-08-04T06:51:24.070Z,3.47
2018-08-04T06:53:52.205Z,3.22
2018-08-04T06:56:20.347Z,4.15
2018-08-04T06:58:48.473Z,3.10
2018-08-04T07:01:16.614Z,3.52
2018-08-04T07:03:44.757Z,2.90
2018-08-04T07:06:12.878Z,3.08
2018-08-04T07:08:41.003Z,2.62
2018-08-04T07:11:09.143Z,3.20
2018-08-04T07:13:37.271Z,3.05
2018-08-04T07:16:05.662Z,3.15
2018-08-04T07:18:33.796Z,2.90
2018-08-04T07:21:01.928Z,3.22
2018-08-04T07:23:30.084Z,2.80
2018-08-04T07:25:58.217Z,2.25
2018-08-04T07:28:26.348Z,1.87
2018-08-04T07:30:54.484Z,2.00
2018-08-04T07:33:22.601Z,2.37
2018-08-04T07:35:50.745Z,1.90
2018-08-04T07:38:18.865Z,1.98
2018-08-04T07:40:47.020Z,2.02
2018-08-04T07:43:15.172Z,2.00
2018-08-04T07:45:43.305Z,1.98
2018-08-04T07:48:11.437Z,2.08
2018-08-04T07:50:39.663Z,2.22
2018-08-04T07:53:07.781Z,1.92
2018-08-04T07:55:35.938Z,1.42
2018-08-04T07:58:04.082Z,1.87
2018-08-04T08:00:32.209Z,2.10
2018-08-04T08:03:00.343Z,1.72
2018-08-04T08:05:28.518Z,1.60
2018-08-04T08:07:56.646Z,1.50
2018-08-04T08:10:24.864Z,1.47
2018-08-04T08:12:53.017Z,1.95
2018-08-04T08:15:21.153Z,2.00
2018-08-04T08:17:49.286Z,1.47
2018-08-04T08:20:17.437Z,1.37
2018-08-04T08:22:45.574Z,1.15
2018-08-04T08:25:13.721Z,1.60
2018-08-04T08:27:41.853Z,1.15
2018-08-04T08:30:13.294Z,1.25
2018-08-04T08:32:41.493Z,1.20
2018-08-04T08:35:10.255Z,1.67
2018-08-04T08:37:38.463Z,0.90
2018-08-04T08:40:07.216Z,1.40
2018-08-04T08:42:35.396Z,1.10
2018-08-04T08:45:03.611Z,1.35
2018-08-04T08:47:31.785Z,1.47
2018-08-04T08:49:59.914Z,1.50
2018-08-04T08:52:28.040Z,1.20
2018-08-04T08:54:56.180Z,1.45
2018-08-04T08:57:24.314Z,1.60
2018-08-04T08:59:52.470Z,1.55
2018-08-04T09:02:20.611Z,1.57
2018-08-04T09:04:48.739Z,1.50
2018-08-04T09:07:16.870Z,1.65
2018-08-04T09:09:45.034Z,1.37
2018-08-04T09:12:13.206Z,1.50
2018-08-04T09:14:41.358Z,1.72
2018-08-04T09:17:09.479Z,1.85
2018-08-04T09:19:37.593Z,1.92
2018-08-04T09:22:05.997Z,1.70
2018-08-04T09:24:34.166Z,2.55
2018-08-04T09:27:02.297Z,2.30
2018-08-04T09:29:30.419Z,1.98
2018-08-04T09:31:58.559Z,2.00
2018-08-04T09:34:26.677Z,1.72
2018-08-04T09:36:54.807Z,2.12
2018-08-04T09:39:22.925Z,2.17
2018-08-04T09:41:51.044Z,1.77
2018-08-04T09:44:19.185Z,1.90
2018-08-04T09:46:47.315Z,1.80
2018-08-04T09:49:15.449Z,2.10
2018-08-04T09:51:43.604Z,1.80
2018-08-04T09:54:11.732Z,2.42
2018-08-04T09:56:39.642Z,2.50
2018-08-04T09:59:07.801Z,1.90
2018-08-04T10:01:37.322Z,2.40
2018-08-04T10:04:05.722Z,2.12
2018-08-04T10:06:33.982Z,1.90
2018-08-04T10:09:02.156Z,1.75
2018-08-04T10:11:30.296Z,2.20
2018-08-04T10:13:58.432Z,1.77
2018-08-04T10:16:26.613Z,1.90
2018-08-04T10:18:54.746Z,2.20
2018-08-04T10:21:22.869Z,2.02
2018-08-04T10:23:50.998Z,2.20
2018-08-04T10:26:19.153Z,2.12
2018-08-04T10:28:47.287Z,1.90
2018-08-04T10:31:15.430Z,1.75
2018-08-04T10:33:43.567Z,1.70
2018-08-04T10:36:11.710Z,1.95
2018-08-04T10:38:39.669Z,2.30
2018-08-04T10:41:07.770Z,2.08
2018-08-04T10:43:35.913Z,2.12
2018-08-04T10:46:04.045Z,2.17
2018-08-04T10:48:32.194Z,2.20
2018-08-04T10:51:00.326Z,2.20
2018-08-04T10:53:28.462Z,2.05
2018-08-04T10:55:56.612Z,1.80
2018-08-04T10:58:24.744Z,2.33
2018-08-04T11:00:52.886Z,2.10
2018-08-04T11:03:21.016Z,2.15
2018-08-04T11:05:49.165Z,1.77
2018-08-04T11:08:17.329Z,1.95
2018-08-04T11:10:45.485Z,1.87
2018-08-04T11:13:13.630Z,1.62
2018-08-04T11:15:41.758Z,2.00
2018-08-04T11:18:09.953Z,2.10
2018-08-04T11:20:38.086Z,1.72
2018-08-04T11:23:06.259Z,1.75
2018-08-04T11:25:34.398Z,1.92
2018-08-04T11:28:02.538Z,1.60
2018-08-04T11:30:30.677Z,1.75
2018-08-04T11:32:58.821Z,1.77
2018-08-04T11:35:26.964Z,1.87
2018-08-04T11:37:55.100Z,1.60
2018-08-04T11:40:23.221Z,1.70
2018-08-04T11:42:51.367Z,1.90
2018-08-04T11:45:19.519Z,1.82
2018-08-04T11:47:47.706Z,1.90
2018-08-04T11:50:15.861Z,1.35
2018-08-04T11:52:43.998Z,1.85
2018-08-04T11:55:12.128Z,1.60
2018-08-04T11:57:40.265Z,1.55
2018-08-04T12:00:08.389Z,1.65
2018-08-04T12:02:36.542Z,1.50
2018-08-04T12:05:04.683Z,1.67
2018-08-04T12:07:32.877Z,1.50
2018-08-04T12:10:00.995Z,1.98
2018-08-04T12:12:29.141Z,1.65
2018-08-04T12:14:57.265Z,2.00
2018-08-04T12:17:25.474Z,1.98
2018-08-04T12:19:53.603Z,1.87
2018-08-04T12:22:22.132Z,1.85
2018-08-04T12:24:50.525Z,1.90
2018-08-04T12:27:18.667Z,1.85
2018-08-04T12:29:46.803Z,1.52
2018-08-04T12:32:14.943Z,1.77
2018-08-04T12:34:43.074Z,1.90
2018-08-04T12:37:11.205Z,1.80
2018-08-04T12:39:39.194Z,1.85
2018-08-04T12:42:07.337Z,1.52
2018-08-04T12:44:35.509Z,1.72
2018-08-04T12:47:03.653Z,1.82
2018-08-04T12:49:31.808Z,1.85
2018-08-04T12:51:59.937Z,1.50
2018-08-04T12:54:28.124Z,1.20
2018-08-04T12:56:56.217Z,1.90
2018-08-04T12:59:24.347Z,1.50
2018-08-04T13:01:52.491Z,1.62
2018-08-04T13:04:20.627Z,1.40
2018-08-04T13:06:48.764Z,1.55
2018-08-04T13:09:16.902Z,1.85
2018-08-04T13:11:45.084Z,1.75
2018-08-04T13:14:13.213Z,1.30
2018-08-04T13:16:41.355Z,1.70
2018-08-04T13:19:09.503Z,1.62
2018-08-04T13:21:37.646Z,1.70
2018-08-04T13:24:05.846Z,1.65
2018-08-04T13:26:33.989Z,1.65
2018-08-04T13:29:02.114Z,1.30
2018-08-04T13:31:30.279Z,1.30
2018-08-04T13:33:58.426Z,1.50
2018-08-04T13:36:26.557Z,1.52
2018-08-04T13:38:54.710Z,1.47
2018-08-04T13:41:22.847Z,1.60
2018-08-04T13:43:51.029Z,1.50
2018-08-04T13:46:19.281Z,1.37
2018-08-04T13:48:47.417Z,1.25
2018-08-04T13:51:15.570Z,1.47
2018-08-04T13:53:43.733Z,1.75
2018-08-04T13:56:11.898Z,1.10
2018-08-04T13:58:40.048Z,1.30
2018-08-04T14:01:08.190Z,1.12
2018-08-04T14:03:37.163Z,1.20
2018-08-04T14:06:05.890Z,1.37
2018-08-04T14:08:34.043Z,1.12
2018-08-04T14:11:02.185Z,1.02
2018-08-04T14:13:30.342Z,1.10
2018-08-04T14:15:58.481Z,1.17
2018-08-04T14:18:26.617Z,0.90
2018-08-04T14:20:54.739Z,1.10
2018-08-04T14:23:22.897Z,1.25
2018-08-04T14:25:51.049Z,1.27
2018-08-04T14:28:19.224Z,1.32
2018-08-04T14:30:47.322Z,1.57
2018-08-04T14:33:15.482Z,1.10
2018-08-04T14:35:43.626Z,1.10
2018-08-04T14:38:11.778Z,1.15
2018-08-04T14:40:39.917Z,0.80
2018-08-04T14:43:08.077Z,1.00
2018-08-04T14:45:36.198Z,1.45
2018-08-04T14:48:04.357Z,0.90
2018-08-04T14:50:32.490Z,1.30
2018-08-04T14:53:00.658Z,1.30
2018-08-04T14:55:28.782Z,1.57
2018-08-04T14:57:56.985Z,1.25
2018-08-04T15:00:25.145Z,1.40
2018-08-04T15:02:53.329Z,1.80
2018-08-04T15:05:21.503Z,1.12
2018-08-04T15:07:49.791Z,1.37
2018-08-04T15:10:17.913Z,1.35
2018-08-04T15:12:46.042Z,1.52
2018-08-04T15:15:14.162Z,1.35
2018-08-04T15:17:42.322Z,1.20
2018-08-04T15:20:10.450Z,1.25
2018-08-04T15:22:38.590Z,1.05
2018-08-04T15:25:07.099Z,1.77
2018-08-04T15:27:35.468Z,0.98
2018-08-04T15:30:03.910Z,1.37
2018-08-04T15:32:32.102Z,1.82
2018-08-04T15:35:00.493Z,1.30
2018-08-04T15:37:28.734Z,1.20
2018-08-04T15:39:56.853Z,1.07
2018-08-04T15:42:25.061Z,1.22
2018-08-04T15:44:53.183Z,1.40
2018-08-04T15:47:21.303Z,1.37
2018-08-04T15:49:49.445Z,1.27
2018-08-04T15:52:17.590Z,1.32
2018-08-04T15:54:45.726Z,1.60
2018-08-04T15:57:13.861Z,1.40
2018-08-04T15:59:42.018Z,1.20
2018-08-04T16:02:10.162Z,1.15
2018-08-04T16:04:38.302Z,1.37
2018-08-04T16:07:06.502Z,1.32
2018-08-04T16:09:34.638Z,1.20
2018-08-04T16:12:02.770Z,1.00
2018-08-04T16:14:30.922Z,1.15
2018-08-04T16:16:59.054Z,1.40
2018-08-04T16:19:27.181Z,1.40
2018-08-04T16:21:55.300Z,1.30
2018-08-04T16:24:23.238Z,1.30
2018-08-04T16:26:51.336Z,1.50
2018-08-04T16:29:19.465Z,1.57
2018-08-04T16:31:47.581Z,1.60
2018-08-04T16:34:15.717Z,1.55
2018-08-04T16:36:43.849Z,1.40
2018-08-04T16:39:11.977Z,1.40
2018-08-04T16:41:40.195Z,1.12
2018-08-04T16:44:08.324Z,1.30
2018-08-04T16:46:36.482Z,1.25
2018-08-04T16:49:04.609Z,1.52
2018-08-04T16:51:32.736Z,1.87
2018-08-04T16:54:00.866Z,1.80
2018-08-04T16:56:29.005Z,1.72
2018-08-04T16:58:57.130Z,1.60
2018-08-04T17:01:25.324Z,1.50
2018-08-04T17:03:53.485Z,2.00
2018-08-04T17:06:21.620Z,1.62
2018-08-04T17:08:49.756Z,1.87
2018-08-04T17:11:17.903Z,2.00
2018-08-04T17:13:46.036Z,1.90
2018-08-04T17:16:14.174Z,1.70
2018-08-04T17:18:42.314Z,1.90
2018-08-04T17:21:10.446Z,1.82
2018-08-04T17:23:38.636Z,1.77
2018-08-04T17:26:06.808Z,1.95
2018-08-04T17:28:34.997Z,1.77
2018-08-04T17:31:03.284Z,2.20
2018-08-04T17:33:31.501Z,1.75
2018-08-04T17:35:59.663Z,2.05
2018-08-04T17:38:27.803Z,2.10
2018-08-04T17:40:56.028Z,2.08
2018-08-04T17:43:24.229Z,2.35
2018-08-04T17:45:52.366Z,2.08
2018-08-04T17:48:20.607Z,2.35
2018-08-04T17:50:48.741Z,1.62
2018-08-04T17:53:16.894Z,2.30
2018-08-04T17:55:45.079Z,1.60
2018-08-04T17:58:13.244Z,2.17
2018-08-04T18:00:41.386Z,1.80
2018-08-04T18:03:09.541Z,2.30
2018-08-04T18:05:37.726Z,2.17
2018-08-04T18:08:05.997Z,2.20
2018-08-04T18:10:34.135Z,1.80
2018-08-04T18:13:02.273Z,1.92
2018-08-04T18:15:30.538Z,2.08
2018-08-04T18:17:58.679Z,1.90
2018-08-04T18:20:26.801Z,1.90
2018-08-04T18:22:54.970Z,1.70
2018-08-04T18:25:23.161Z,1.90
2018-08-04T18:27:51.301Z,2.27
2018-08-04T18:30:19.487Z,2.05
2018-08-04T18:32:47.673Z,2.45
2018-08-04T18:35:15.826Z,1.60
2018-08-04T18:37:44.028Z,2.20
2018-08-04T18:40:12.149Z,2.00
2018-08-04T18:42:40.306Z,1.80
2018-08-04T18:45:08.449Z,2.05
2018-08-04T18:47:36.582Z,1.90
2018-08-04T18:50:04.940Z,1.77
2018-08-04T18:52:33.025Z,2.05
2018-08-04T18:55:01.204Z,1.80
2018-08-04T18:57:29.368Z,1.75
2018-08-04T18:59:57.545Z,1.80
2018-08-04T19:02:25.690Z,1.67
2018-08-04T19:04:53.838Z,1.67
2018-08-04T19:07:21.969Z,1.45
2018-08-04T19:09:50.194Z,1.50
2018-08-04T19:12:18.331Z,1.67
2018-08-04T19:14:46.476Z,1.45
2018-08-04T19:17:14.607Z,1.60
2018-08-04T19:19:42.733Z,2.15
2018-08-04T19:22:10.954Z,1.82
2018-08-04T19:24:39.093Z,2.00
2018-08-04T19:27:07.252Z,1.60
2018-08-04T19:29:35.420Z,1.60
2018-08-04T19:32:03.597Z,1.85
2018-08-04T19:34:31.740Z,1.75
2018-08-04T19:36:59.870Z,1.55
2018-08-04T19:39:27.990Z,1.75
2018-08-04T19:41:56.190Z,1.35
2018-08-04T19:44:24.334Z,2.00
2018-08-04T19:46:52.489Z,1.20
2018-08-04T19:49:20.633Z,1.35
2018-08-04T19:51:48.833Z,1.60
2018-08-04T19:54:17.014Z,1.30
2018-08-04T19:56:45.140Z,1.65
2018-08-04T19:59:13.269Z,1.85
2018-08-04T20:01:41.176Z,1.35
2018-08-04T20:04:09.343Z,1.22
2018-08-04T20:06:37.441Z,1.02
2018-08-04T20:09:07.526Z,1.20
2018-08-04T20:11:35.673Z,1.25
2018-08-04T20:14:03.833Z,1.20
2018-08-04T20:16:32.191Z,1.32
2018-08-04T20:19:00.568Z,1.40
2018-08-04T20:21:28.700Z,1.20
2018-08-04T20:23:56.891Z,1.40
2018-08-04T20:26:25.106Z,1.72
2018-08-04T20:28:53.585Z,1.27
2018-08-04T20:31:21.718Z,1.60
2018-08-04T20:33:49.874Z,1.07
2018-08-04T20:36:18.002Z,1.42
2018-08-04T20:38:46.135Z,1.40
2018-08-04T20:41:14.274Z,1.50
2018-08-04T20:43:42.402Z,1.35
2018-08-04T20:46:10.525Z,1.32
2018-08-04T20:48:38.662Z,1.67
2018-08-04T20:51:06.779Z,1.40
2018-08-04T20:53:34.907Z,1.42
2018-08-04T20:56:03.036Z,1.72
2018-08-04T20:58:31.161Z,1.80
2018-08-04T21:01:10.879Z,1.52
2018-08-04T21:03:39.018Z,1.50
2018-08-04T21:06:07.246Z,1.82
2018-08-04T21:08:35.378Z,1.65
2018-08-04T21:11:03.516Z,1.72
2018-08-04T21:13:31.671Z,1.45
2018-08-04T21:15:59.788Z,1.77
2018-08-04T21:18:27.943Z,1.65
2018-08-04T21:20:56.097Z,1.55
2018-08-04T21:23:24.225Z,1.47
2018-08-04T21:25:52.350Z,1.60
2018-08-04T21:28:20.490Z,1.50
2018-08-04T21:30:48.623Z,1.50
2018-08-04T21:33:16.766Z,1.70
2018-08-04T21:35:44.885Z,1.67
2018-08-04T21:38:13.028Z,1.57
2018-08-04T21:40:41.161Z,1.67
2018-08-04T21:43:09.297Z,1.72
2018-08-04T21:45:37.422Z,1.62
2018-08-04T21:48:05.796Z,1.70
2018-08-04T21:50:33.947Z,1.80
2018-08-04T21:53:02.037Z,1.50
2018-08-04T21:55:30.153Z,1.47
2018-08-04T21:57:58.305Z,1.60
2018-08-04T22:00:26.430Z,1.80
2018-08-04T22:02:58.416Z,1.52
2018-08-04T22:05:27.299Z,1.20
2018-08-04T22:08:07.829Z,1.25
2018-08-04T22:10:35.965Z,1.57
2018-08-04T22:13:04.215Z,1.75
2018-08-04T22:15:32.261Z,1.60
2018-08-04T22:18:00.399Z,1.62
2018-08-04T22:20:29.045Z,1.40
2018-08-04T22:22:57.173Z,1.52
2018-08-04T22:25:26.520Z,1.90
2018-08-04T22:27:55.079Z,1.80
2018-08-04T22:30:23.585Z,2.02
2018-08-04T22:32:51.963Z,2.17
2018-08-04T22:35:20.253Z,1.60
2018-08-04T22:37:48.408Z,1.82
2018-08-04T22:40:17.430Z,1.45
2018-08-04T22:42:45.783Z,2.33
2018-08-04T22:46:10.528Z,2.20
2018-08-04T22:48:38.722Z,1.80
2018-08-04T22:51:06.872Z,1.65
2018-08-04T22:53:35.335Z,2.10
2018-08-04T22:56:03.481Z,2.15
2018-08-04T22:58:31.646Z,1.52
2018-08-04T23:00:59.787Z,2.20
2018-08-04T23:03:27.939Z,1.90
2018-08-04T23:05:56.101Z,1.87
2018-08-04T23:08:24.234Z,2.08
2018-08-04T23:10:52.370Z,2.00
2018-08-04T23:13:20.518Z,2.25
2018-08-04T23:15:48.684Z,1.60
2018-08-04T23:18:16.825Z,1.50
2018-08-04T23:20:44.950Z,1.80
2018-08-04T23:23:14.005Z,2.02
2018-08-04T23:25:42.167Z,1.70
2018-08-04T23:28:10.562Z,1.98
2018-08-04T23:30:38.681Z,2.50
2018-08-04T23:33:06.845Z,2.10
2018-08-04T23:35:34.987Z,1.98
2018-08-04T23:38:03.134Z,1.95
2018-08-04T23:40:31.287Z,2.30
2018-08-04T23:42:59.418Z,2.17
2018-08-04T23:45:27.552Z,2.17
2018-08-04T23:47:55.681Z,2.25
2018-08-04T23:50:23.817Z,1.75
2018-08-04T23:52:52.430Z,1.67
2018-08-04T23:55:20.585Z,2.50
2018-08-04T23:57:48.704Z,2.60
